createdAt,value
2018-02-04T00:00:27.158Z,100523.17
2018-02-04T00:02:54.714Z,100524.59
2018-02-04T00:05:22.231Z,100525.15
2018-02-04T00:07:49.791Z,100525.89
2018-02-04T00:10:17.327Z,100535.48
2018-02-04T00:12:44.892Z,100533.22
2018-02-04T00:15:12.439Z,100533.59
2018-02-04T00:17:40.065Z,100539.53
2018-02-04T00:20:07.635Z,100538.63
2018-02-04T00:22:39.156Z,100541.63
2018-02-04T00:25:06.790Z,100540.84
2018-02-04T00:27:34.339Z,100550.06
2018-02-04T00:30:01.886Z,100554.57
2018-02-04T00:32:29.473Z,100554.52
2018-02-04T00:34:57.091Z,100556.27
2018-02-04T00:37:24.634Z,100565.13
2018-02-04T00:39:52.205Z,100570.88
2018-02-04T00:42:19.775Z,100566.41
2018-02-04T00:44:47.465Z,100572.94
2018-02-04T00:47:15.036Z,100577.91
2018-02-04T00:49:42.577Z,100575.04
2018-02-04T00:52:10.115Z,100580.22
2018-02-04T00:54:37.666Z,100575.18
2018-02-04T00:57:05.235Z,100589.42
2018-02-04T00:59:32.752Z,100588.64
2018-02-04T01:02:00.292Z,100592.12
2018-02-04T01:04:27.808Z,100594.27
2018-02-04T01:06:55.647Z,100600.56
2018-02-04T01:09:23.198Z,100605.66
2018-02-04T01:11:50.744Z,100604.08
2018-02-04T01:14:18.418Z,100602.52
2018-02-04T01:16:45.958Z,100616.68
2018-02-04T01:19:13.547Z,100614.33
2018-02-04T01:21:41.105Z,100615.69
2018-02-04T01:24:08.686Z,100616.73
2018-02-04T01:26:36.232Z,100621.16
2018-02-04T01:29:03.835Z,100626.63
2018-02-04T01:31:31.377Z,100625.43
2018-02-04T01:33:58.894Z,100623.36
2018-02-04T01:36:26.484Z,100625.52
2018-02-04T01:38:54.046Z,100633.16
2018-02-04T01:41:22.426Z,100634.05
2018-02-04T01:43:49.970Z,100634.81
2018-02-04T01:46:17.471Z,100632.85
2018-02-04T01:48:45.026Z,100629.38
2018-02-04T01:51:12.534Z,100639.94
2018-02-04T01:53:40.071Z,100639.23
2018-02-04T01:56:07.645Z,100645.72
2018-02-04T01:58:35.205Z,100650.47
2018-02-04T02:01:02.789Z,100652.38
2018-02-04T02:03:30.345Z,100660.44
2018-02-04T02:05:57.888Z,100650.75
2018-02-04T02:08:25.470Z,100655.31
2018-02-04T02:10:53.046Z,100650.02
2018-02-04T02:13:20.582Z,100651.86
2018-02-04T02:15:48.179Z,100655.31
2018-02-04T02:18:15.737Z,100653.28
2018-02-04T02:20:43.356Z,100651.47
2018-02-04T02:23:10.892Z,100662.95
2018-02-04T02:25:38.422Z,100664.44
2018-02-04T02:28:05.961Z,100668.81
2018-02-04T02:30:33.483Z,100673.55
2018-02-04T02:33:01.108Z,100666.48
2018-02-04T02:35:28.619Z,100677.33
2018-02-04T02:37:56.176Z,100670.91
2018-02-04T02:40:23.701Z,100674.07
2018-02-04T02:42:51.254Z,100679.43
2018-02-04T02:45:18.833Z,100676.88
2018-02-04T02:47:46.366Z,100679.14
2018-02-04T02:50:13.918Z,100684.05
2018-02-04T02:52:41.497Z,100689.94
2018-02-04T02:55:09.005Z,100691.55
2018-02-04T02:57:36.592Z,100687.64
2018-02-04T03:00:04.185Z,100691.25
2018-02-04T03:02:31.774Z,100691.64
2018-02-04T03:04:59.336Z,100693.59
2018-02-04T03:07:26.867Z,100694.42
2018-02-04T03:09:54.852Z,100700.80
2018-02-04T03:12:22.378Z,100697.40
2018-02-04T03:14:49.925Z,100706.39
2018-02-04T03:17:17.604Z,100710.52
2018-02-04T03:19:45.500Z,100713.05
2018-02-04T03:22:13.006Z,100718.37
2018-02-04T03:24:40.537Z,100724.77
2018-02-04T03:27:08.111Z,100725.54
2018-02-04T03:29:35.662Z,100725.52
2018-02-04T03:32:03.173Z,100730.91
2018-02-04T03:34:30.694Z,100734.47
2018-02-04T03:36:58.657Z,100734.90
2018-02-04T03:39:26.178Z,100741.73
2018-02-04T03:41:53.716Z,100739.23
2018-02-04T03:44:21.311Z,100741.50
2018-02-04T03:46:49.216Z,100739.45
2018-02-04T03:49:16.770Z,100741.84
2018-02-04T03:51:44.304Z,100743.80
2018-02-04T03:54:11.850Z,100748.14
2018-02-04T03:56:39.394Z,100757.95
2018-02-04T03:59:06.957Z,100762.49
2018-02-04T04:01:34.555Z,100767.22
2018-02-04T04:04:02.094Z,100775.10
2018-02-04T04:06:29.623Z,100775.41
2018-02-04T04:08:57.142Z,100777.67
2018-02-04T04:11:24.656Z,100783.08
2018-02-04T04:13:52.240Z,100788.12
2018-02-04T04:16:19.789Z,100793.73
2018-02-04T04:18:47.333Z,100800.43
2018-02-04T04:21:14.893Z,100795.86
2018-02-04T04:23:42.518Z,100803.51
2018-02-04T04:26:10.042Z,100800.91
2018-02-04T04:28:37.964Z,100810.03
2018-02-04T04:31:05.505Z,100815.38
2018-02-04T04:33:33.020Z,100821.89
2018-02-04T04:36:00.584Z,100825.14
2018-02-04T04:38:28.131Z,100825.52
2018-02-04T04:40:55.666Z,100823.53
2018-02-04T04:43:23.190Z,100826.11
2018-02-04T04:45:50.743Z,100828.80
2018-02-04T04:48:18.341Z,100827.06
2018-02-04T04:50:45.855Z,100837.58
2018-02-04T04:53:13.372Z,100841.36
2018-02-04T04:55:40.954Z,100845.52
2018-02-04T04:58:08.486Z,100844.03
2018-02-04T05:00:36.057Z,100850.86
2018-02-04T05:03:03.576Z,100849.72
2018-02-04T05:05:31.146Z,100846.75
2018-02-04T05:07:58.668Z,100843.31
2018-02-04T05:10:26.193Z,100850.72
2018-02-04T05:12:54.067Z,100853.20
2018-02-04T05:15:21.613Z,100856.95
2018-02-04T05:17:49.165Z,100858.48
2018-02-04T05:20:16.731Z,100857.47
2018-02-04T05:22:44.304Z,100860.46
2018-02-04T05:25:11.880Z,100857.64
2018-02-04T05:27:40.135Z,100865.19
2018-02-04T05:30:07.667Z,100860.19
2018-02-04T05:32:35.182Z,100865.62
2018-02-04T05:35:03.166Z,100862.07
2018-02-04T05:37:30.706Z,100865.91
2018-02-04T05:39:58.257Z,100864.43
2018-02-04T05:42:25.827Z,100878.98
2018-02-04T05:44:53.337Z,100873.72
2018-02-04T05:47:20.861Z,100883.38
2018-02-04T05:49:49.451Z,100880.28
2018-02-04T05:52:17.000Z,100882.78
2018-02-04T05:54:44.626Z,100893.12
2018-02-04T05:57:12.222Z,100888.31
2018-02-04T05:59:39.759Z,100890.17
2018-02-04T06:02:07.295Z,100900.63
2018-02-04T06:04:34.958Z,100896.72
2018-02-04T06:07:02.479Z,100895.98
2018-02-04T06:09:30.036Z,100895.52
2018-02-04T06:11:57.543Z,100895.86
2018-02-04T06:14:25.092Z,100900.06
2018-02-04T06:16:52.656Z,100901.02
2018-02-04T06:19:20.167Z,100909.28
2018-02-04T06:21:47.737Z,100912.74
2018-02-04T06:24:15.292Z,100917.42
2018-02-04T06:26:42.913Z,100914.03
2018-02-04T06:29:10.418Z,100913.58
2018-02-04T06:31:37.955Z,100911.95
2018-02-04T06:34:05.503Z,100912.28
2018-02-04T06:36:33.010Z,100916.54
2018-02-04T06:39:00.549Z,100920.16
2018-02-04T06:41:28.071Z,100923.28
2018-02-04T06:43:56.016Z,100923.27
2018-02-04T06:46:23.522Z,100925.49
2018-02-04T06:48:51.049Z,100932.86
2018-02-04T06:51:18.887Z,100941.52
2018-02-04T06:53:46.460Z,100942.99
2018-02-04T06:56:13.986Z,100939.80
2018-02-04T06:58:41.540Z,100944.85
2018-02-04T07:01:09.087Z,100954.36
2018-02-04T07:03:36.638Z,100955.16
2018-02-04T07:06:04.214Z,100965.03
2018-02-04T07:08:31.770Z,100964.10
2018-02-04T07:10:59.280Z,100971.44
2018-02-04T07:13:26.847Z,100980.38
2018-02-04T07:15:54.391Z,100981.12
2018-02-04T07:18:21.940Z,100986.15
2018-02-04T07:20:49.819Z,100996.81
2018-02-04T07:23:17.346Z,100995.28
2018-02-04T07:25:44.886Z,101001.44
2018-02-04T07:28:12.453Z,101006.09
2018-02-04T07:30:40.047Z,101002.86
2018-02-04T07:33:07.560Z,101007.97
2018-02-04T07:35:35.105Z,101010.64
2018-02-04T07:38:02.674Z,101017.25
2018-02-04T07:40:30.235Z,101023.73
2018-02-04T07:42:57.942Z,101029.67
2018-02-04T07:45:25.467Z,101026.12
2018-02-04T07:47:52.971Z,101040.33
2018-02-04T07:50:20.523Z,101034.89
2018-02-04T07:52:48.445Z,101043.39
2018-02-04T07:55:15.958Z,101052.12
2018-02-04T07:57:43.536Z,101043.06
2018-02-04T08:00:11.081Z,101059.03
2018-02-04T08:02:38.602Z,101058.08
2018-02-04T08:05:06.148Z,101072.24
2018-02-04T08:07:33.656Z,101068.74
2018-02-04T08:10:01.272Z,101090.17
2018-02-04T08:12:28.774Z,101077.92
2018-02-04T08:14:56.338Z,101103.16
2018-02-04T08:17:23.900Z,101101.23
2018-02-04T08:19:51.495Z,101113.76
2018-02-04T08:22:19.033Z,101116.88
2018-02-04T08:24:46.563Z,101125.33
2018-02-04T08:27:14.194Z,101125.26
2018-02-04T08:29:41.707Z,101140.52
2018-02-04T08:32:09.301Z,101138.66
2018-02-04T08:34:36.844Z,101136.89
2018-02-04T08:37:04.367Z,101145.91
2018-02-04T08:39:31.954Z,101153.30
2018-02-04T08:41:59.520Z,101159.75
2018-02-04T08:44:27.042Z,101165.02
2018-02-04T08:46:54.606Z,101170.19
2018-02-04T08:49:22.157Z,101176.59
2018-02-04T08:51:49.733Z,101184.66
2018-02-04T08:54:17.325Z,101184.66
2018-02-04T08:56:44.892Z,101190.34
2018-02-04T08:59:12.412Z,101199.64
2018-02-04T09:01:40.049Z,101209.41
2018-02-04T09:04:07.568Z,101213.78
2018-02-04T09:06:35.205Z,101214.23
2018-02-04T09:09:02.762Z,101228.70
2018-02-04T09:11:30.306Z,101231.71
2018-02-04T09:13:57.912Z,101229.38
2018-02-04T09:16:25.437Z,101235.68
2018-02-04T09:18:52.940Z,101231.20
2018-02-04T09:21:20.834Z,101231.97
2018-02-04T09:23:48.341Z,101248.95
2018-02-04T09:26:15.848Z,101249.88
2018-02-04T09:28:43.417Z,101249.87
2018-02-04T09:31:11.079Z,101258.31
2018-02-04T09:33:38.602Z,101261.39
2018-02-04T09:36:06.308Z,101262.05
2018-02-04T09:38:33.861Z,101277.17
2018-02-04T09:41:01.414Z,101281.88
2018-02-04T09:43:28.919Z,101284.61
2018-02-04T09:45:56.481Z,101296.09
2018-02-04T09:48:23.999Z,101297.63
2018-02-04T09:50:51.552Z,101315.53
2018-02-04T09:53:19.079Z,101315.53
2018-02-04T09:55:46.616Z,101318.89
2018-02-04T09:58:14.162Z,101323.45
2018-02-04T10:00:41.675Z,101325.14
2018-02-04T10:03:09.292Z,101338.13
2018-02-04T10:05:36.850Z,101340.41
2018-02-04T10:08:04.470Z,101340.55
2018-02-04T10:10:32.036Z,101347.88
2018-02-04T10:12:59.592Z,101350.85
2018-02-04T10:15:27.122Z,101358.56
2018-02-04T10:17:54.725Z,101360.31
2018-02-04T10:20:22.252Z,101363.44
2018-02-04T10:22:49.779Z,101373.95
2018-02-04T10:25:17.326Z,101367.13
2018-02-04T10:27:45.061Z,101367.97
2018-02-04T10:30:12.633Z,101371.31
2018-02-04T10:32:40.162Z,101377.17
2018-02-04T10:35:07.726Z,101381.53
2018-02-04T10:37:35.279Z,101403.95
2018-02-04T10:40:02.865Z,101400.94
2018-02-04T10:42:30.416Z,101406.81
2018-02-04T10:44:57.959Z,101412.58
2018-02-04T10:47:25.478Z,101413.16
2018-02-04T10:49:53.036Z,101416.43
2018-02-04T10:52:20.546Z,101419.52
2018-02-04T10:54:48.125Z,101423.21
2018-02-04T10:57:15.681Z,101415.41
2018-02-04T10:59:43.268Z,101426.34
2018-02-04T11:02:10.808Z,101431.00
2018-02-04T11:04:38.329Z,101438.52
2018-02-04T11:07:05.898Z,101440.50
2018-02-04T11:09:33.394Z,101443.63
2018-02-04T11:12:00.958Z,101450.09
2018-02-04T11:14:28.551Z,101448.91
2018-02-04T11:16:56.103Z,101448.62
2018-02-04T11:19:23.688Z,101454.31
2018-02-04T11:21:51.187Z,101457.62
2018-02-04T11:24:18.716Z,101458.17
2018-02-04T11:26:46.599Z,101454.30
2018-02-04T11:29:14.170Z,101458.96
2018-02-04T11:31:41.703Z,101452.38
2018-02-04T11:34:09.294Z,101458.11
2018-02-04T11:36:36.864Z,101456.17
2018-02-04T11:39:04.411Z,101458.29
2018-02-04T11:41:31.972Z,101460.98
2018-02-04T11:43:59.552Z,101450.71
2018-02-04T11:46:27.062Z,101451.88
2018-02-04T11:48:54.642Z,101465.76
2018-02-04T11:51:22.142Z,101467.70
2018-02-04T11:53:49.678Z,101467.03
2018-02-04T11:56:17.198Z,101469.59
2018-02-04T11:58:44.772Z,101464.33
2018-02-04T12:01:12.333Z,101464.75
2018-02-04T12:03:39.886Z,101480.13
2018-02-04T12:06:07.406Z,101480.61
2018-02-04T12:08:34.944Z,101481.24
2018-02-04T12:11:02.513Z,101476.93
2018-02-04T12:13:30.057Z,101481.16
2018-02-04T12:15:57.729Z,101482.27
2018-02-04T12:18:25.281Z,101478.52
2018-02-04T12:20:52.820Z,101481.32
2018-02-04T12:23:20.384Z,101486.55
2018-02-04T12:25:47.914Z,101486.08
2018-02-04T12:28:15.477Z,101493.59
2018-02-04T12:30:43.010Z,101490.67
2018-02-04T12:33:10.540Z,101492.60
2018-02-04T12:35:38.462Z,101492.31
2018-02-04T12:38:05.999Z,101489.52
2018-02-04T12:40:33.507Z,101489.77
2018-02-04T12:43:01.093Z,101489.10
2018-02-04T12:45:28.623Z,101496.03
2018-02-04T12:47:56.165Z,101506.16
2018-02-04T12:50:24.088Z,101500.48
2018-02-04T12:52:51.596Z,101499.33
2018-02-04T12:55:19.144Z,101502.17
2018-02-04T12:57:46.695Z,101498.64
2018-02-04T13:00:14.603Z,101499.49
2018-02-04T13:02:42.159Z,101503.48
2018-02-04T13:05:09.720Z,101503.12
2018-02-04T13:07:37.310Z,101496.62
2018-02-04T13:10:04.836Z,101501.54
2018-02-04T13:12:32.362Z,101508.14
2018-02-04T13:14:59.891Z,101507.64
2018-02-04T13:17:27.434Z,101510.02
2018-02-04T13:19:54.959Z,101510.70
2018-02-04T13:22:22.475Z,101510.30
2018-02-04T13:24:50.037Z,101514.16
2018-02-04T13:27:17.556Z,101513.09
2018-02-04T13:29:45.148Z,101522.19
2018-02-04T13:32:12.668Z,101520.88
2018-02-04T13:34:40.174Z,101525.21
2018-02-04T13:37:08.102Z,101525.43
2018-02-04T13:39:35.647Z,101530.71
2018-02-04T13:42:03.178Z,101528.73
2018-02-04T13:44:30.743Z,101534.96
2018-02-04T13:46:58.290Z,101533.35
2018-02-04T13:49:25.910Z,101542.97
2018-02-04T13:51:53.482Z,101542.03
2018-02-04T13:54:21.009Z,101545.69
2018-02-04T13:56:48.576Z,101552.96
2018-02-04T13:59:16.157Z,101551.20
2018-02-04T14:01:43.685Z,101557.64
2018-02-04T14:04:11.252Z,101559.68
2018-02-04T14:06:39.184Z,101568.95
2018-02-04T14:09:06.824Z,101561.34
2018-02-04T14:11:34.390Z,101563.52
2018-02-04T14:14:02.291Z,101561.66
2018-02-04T14:16:29.818Z,101557.81
2018-02-04T14:18:57.393Z,101568.19
2018-02-04T14:21:25.309Z,101560.48
2018-02-04T14:23:52.851Z,101557.29
2018-02-04T14:26:20.355Z,101563.95
2018-02-04T14:28:48.258Z,101564.42
2018-02-04T14:31:15.808Z,101561.88
2018-02-04T14:33:43.392Z,101566.55
2018-02-04T14:36:11.281Z,101568.37
2018-02-04T14:38:38.826Z,101575.77
2018-02-04T14:41:06.354Z,101579.89
2018-02-04T14:43:33.924Z,101578.25
2018-02-04T14:46:01.455Z,101574.55
2018-02-04T14:48:29.010Z,101577.20
2018-02-04T14:50:56.922Z,101581.83
2018-02-04T14:53:24.436Z,101583.86
2018-02-04T14:55:51.947Z,101588.56
2018-02-04T14:58:19.554Z,101587.67
2018-02-04T15:00:47.154Z,101589.56
2018-02-04T15:03:14.745Z,101595.30
2018-02-04T15:05:42.292Z,101592.70
2018-02-04T15:08:09.836Z,101596.92
2018-02-04T15:10:37.691Z,101593.89
2018-02-04T15:13:05.442Z,101598.63
2018-02-04T15:15:32.987Z,101599.91
2018-02-04T15:18:00.524Z,101607.16
2018-02-04T15:20:28.394Z,101600.22
2018-02-04T15:22:55.981Z,101615.98
2018-02-04T15:25:23.491Z,101607.95
2018-02-04T15:27:51.207Z,101615.09
2018-02-04T15:30:19.542Z,101611.28
2018-02-04T15:32:47.094Z,101622.12
2018-02-04T15:35:14.652Z,101618.61
2018-02-04T15:37:42.835Z,101624.93
2018-02-04T15:40:10.382Z,101626.75
2018-02-04T15:42:37.928Z,101628.76
2018-02-04T15:45:05.819Z,101626.25
2018-02-04T15:47:33.368Z,101630.56
2018-02-04T15:50:00.901Z,101634.29
2018-02-04T15:52:28.576Z,101632.67
2018-02-04T15:54:56.114Z,101632.77
2018-02-04T15:57:23.669Z,101638.11
2018-02-04T15:59:51.219Z,101643.32
2018-02-04T16:02:18.823Z,101653.98
2018-02-04T16:04:46.351Z,101656.38
2018-02-04T16:07:13.997Z,101656.19
2018-02-04T16:09:41.608Z,101662.41
2018-02-04T16:12:09.165Z,101668.64
2018-02-04T16:14:36.745Z,101669.94
2018-02-04T16:17:04.619Z,101668.53
2018-02-04T16:19:32.160Z,101669.75
2018-02-04T16:21:59.721Z,101672.38
2018-02-04T16:24:27.297Z,101684.92
2018-02-04T16:26:54.859Z,101681.39
2018-02-04T16:29:22.800Z,101676.59
2018-02-04T16:31:50.339Z,101685.52
2018-02-04T16:34:17.857Z,101688.45
2018-02-04T16:36:45.423Z,101683.92
2018-02-04T16:39:12.963Z,101681.30
2018-02-04T16:41:40.857Z,101687.75
2018-02-04T16:44:08.412Z,101688.34
2018-02-04T16:46:35.985Z,101686.33
2018-02-04T16:49:03.940Z,101699.62
2018-02-04T16:51:31.478Z,101699.01
2018-02-04T16:53:59.068Z,101702.13
2018-02-04T16:56:34.484Z,101710.27
2018-02-04T16:59:02.033Z,101708.34
2018-02-04T17:01:29.580Z,101713.89
2018-02-04T17:03:57.120Z,101720.02
2018-02-04T17:06:24.679Z,101718.50
2018-02-04T17:08:52.245Z,101734.29
2018-02-04T17:11:19.893Z,101726.45
2018-02-04T17:13:47.432Z,101723.84
2018-02-04T17:16:15.275Z,101740.23
2018-02-04T17:18:42.943Z,101737.91
2018-02-04T17:21:10.475Z,101729.27
2018-02-04T17:23:38.100Z,101732.17
2018-02-04T17:26:05.635Z,101741.44
2018-02-04T17:28:33.189Z,101742.86
2018-02-04T17:31:01.130Z,101746.68
2018-02-04T17:33:28.701Z,101746.47
2018-02-04T17:35:56.256Z,101750.67
2018-02-04T17:38:23.814Z,101750.67
2018-02-04T17:40:51.494Z,101759.95
2018-02-04T17:43:19.184Z,101760.03
2018-02-04T17:45:46.748Z,101769.78
2018-02-04T17:48:14.346Z,101767.59
2018-02-04T17:50:41.921Z,101774.42
2018-02-04T17:53:09.494Z,101778.53
2018-02-04T17:55:37.117Z,101778.83
2018-02-04T17:58:04.738Z,101773.30
2018-02-04T18:00:32.264Z,101780.34
2018-02-04T18:02:59.827Z,101784.69
2018-02-04T18:05:27.366Z,101787.91
2018-02-04T18:07:55.367Z,101783.25
2018-02-04T18:10:22.902Z,101784.48
2018-02-04T18:12:50.477Z,101785.16
2018-02-04T18:15:18.068Z,101792.09
2018-02-04T18:17:45.611Z,101786.28
2018-02-04T18:20:13.565Z,101793.61
2018-02-04T18:22:41.127Z,101795.23
2018-02-04T18:25:08.686Z,101794.81
2018-02-04T18:27:36.232Z,101798.63
2018-02-04T18:30:04.004Z,101795.33
2018-02-04T18:32:31.600Z,101803.27
2018-02-04T18:34:59.172Z,101809.48
2018-02-04T18:37:26.725Z,101804.38
2018-02-04T18:39:54.709Z,101803.37
2018-02-04T18:42:22.372Z,101819.77
2018-02-04T18:44:50.046Z,101820.08
2018-02-04T18:47:17.725Z,101826.73
2018-02-04T18:49:45.271Z,101827.61
2018-02-04T18:52:13.081Z,101828.50
2018-02-04T18:54:41.266Z,101835.77
2018-02-04T18:57:08.854Z,101828.30
2018-02-04T18:59:36.396Z,101831.22
2018-02-04T19:02:03.936Z,101832.92
2018-02-04T19:04:31.871Z,101838.53
2018-02-04T19:06:59.438Z,101843.91
2018-02-04T19:09:26.982Z,101843.09
2018-02-04T19:11:54.582Z,101844.32
2018-02-04T19:14:22.165Z,101836.75
2018-02-04T19:16:49.832Z,101851.45
2018-02-04T19:19:17.760Z,101852.05
2018-02-04T19:21:45.328Z,101853.67
2018-02-04T19:24:13.022Z,101862.90
2018-02-04T19:26:40.671Z,101860.50
2018-02-04T19:29:08.251Z,101859.71
2018-02-04T19:31:36.236Z,101858.88
2018-02-04T19:34:04.079Z,101859.88
2018-02-04T19:36:31.854Z,101859.80
2018-02-04T19:38:59.938Z,101875.78
2018-02-04T19:41:27.667Z,101867.73
2018-02-04T19:43:55.489Z,101870.74
2018-02-04T19:46:23.430Z,101874.53
2018-02-04T19:48:51.147Z,101884.61
2018-02-04T19:51:19.029Z,101887.93
2018-02-04T19:53:46.868Z,101901.72
2018-02-04T19:56:14.446Z,101892.94
2018-02-04T19:58:41.980Z,101894.66
2018-02-04T20:01:09.834Z,101893.95
2018-02-04T20:03:37.371Z,101891.65
2018-02-04T20:06:04.930Z,101893.63
2018-02-04T20:08:32.762Z,101891.84
2018-02-04T20:11:00.637Z,101898.17
2018-02-04T20:13:28.518Z,101895.27
2018-02-04T20:15:56.368Z,101899.48
2018-02-04T20:18:24.177Z,101891.73
2018-02-04T20:20:51.833Z,101893.95
2018-02-04T20:23:19.358Z,101904.22
2018-02-04T20:25:46.905Z,101907.06
2018-02-04T20:28:14.925Z,101907.34
2018-02-04T20:30:42.513Z,101911.17
2018-02-04T20:33:20.949Z,101914.00
2018-02-04T20:35:48.580Z,101916.79
2018-02-04T20:38:16.106Z,101918.48
2018-02-04T20:40:43.634Z,101912.08
2018-02-04T20:43:11.180Z,101920.02
2018-02-04T20:45:38.746Z,101920.22
2018-02-04T20:48:06.326Z,101914.47
2018-02-04T20:50:33.917Z,101920.26
2018-02-04T20:53:01.482Z,101918.99
2018-02-04T20:55:29.034Z,101921.88
2018-02-04T20:57:56.663Z,101933.06
2018-02-04T21:00:24.179Z,101935.30
2018-02-04T21:02:51.729Z,101940.28
2018-02-04T21:05:19.301Z,101938.58
2018-02-04T21:07:46.810Z,101932.34
2018-02-04T21:10:14.417Z,101929.55
2018-02-04T21:12:42.154Z,101930.84
2018-02-04T21:15:09.676Z,101932.63
2018-02-04T21:17:37.215Z,101930.52
2018-02-04T21:20:04.859Z,101932.56
2018-02-04T21:22:32.734Z,101933.33
2018-02-04T21:25:00.279Z,101933.76
2018-02-04T21:27:27.787Z,101939.59
2018-02-04T21:29:55.353Z,101940.09
2018-02-04T21:32:22.939Z,101938.46
2018-02-04T21:34:50.483Z,101932.51
2018-02-04T21:37:18.399Z,101937.93
2018-02-04T21:39:45.967Z,101941.07
2018-02-04T21:42:13.522Z,101950.84
2018-02-04T21:44:41.084Z,101941.27
2018-02-04T21:47:08.629Z,101943.56
2018-02-04T21:49:36.181Z,101940.88
2018-02-04T21:52:03.725Z,101944.28
2018-02-04T21:54:31.277Z,101948.11
2018-02-04T21:56:58.826Z,101951.33
2018-02-04T21:59:26.391Z,101959.06
2018-02-04T22:01:53.961Z,101952.64
2018-02-04T22:04:21.955Z,101951.23
2018-02-04T22:06:49.493Z,101951.02
2018-02-04T22:09:17.015Z,101953.26
2018-02-04T22:11:44.623Z,101950.50
2018-02-04T22:14:12.163Z,101958.66
2018-02-04T22:16:39.722Z,101963.39
2018-02-04T22:19:07.381Z,101961.28
2018-02-04T22:21:34.935Z,101964.23
2018-02-04T22:24:02.471Z,101970.92
2018-02-04T22:26:30.023Z,101978.47
2018-02-04T22:28:57.576Z,101981.48
2018-02-04T22:31:25.496Z,101973.77
2018-02-04T22:33:53.015Z,101981.28
2018-02-04T22:36:20.539Z,101990.44
2018-02-04T22:38:48.480Z,101988.22
2018-02-04T22:41:16.029Z,101982.19
2018-02-04T22:43:43.587Z,101983.90
2018-02-04T22:46:11.501Z,101987.49
2018-02-04T22:48:39.068Z,101986.96
2018-02-04T22:51:06.603Z,101983.42
2018-02-04T22:53:34.156Z,101979.02
2018-02-04T22:56:01.722Z,101981.44
2018-02-04T22:58:29.309Z,101987.06
2018-02-04T23:00:56.890Z,101986.80
2018-02-04T23:03:24.422Z,101990.28
2018-02-04T23:05:52.397Z,101992.48
2018-02-04T23:08:19.937Z,101990.44
2018-02-04T23:10:47.492Z,101986.61
2018-02-04T23:13:15.059Z,101990.76
2018-02-04T23:15:42.578Z,101986.61
2018-02-04T23:18:10.125Z,101992.27
2018-02-04T23:20:37.724Z,101985.53
2018-02-04T23:23:05.288Z,101990.48
2018-02-04T23:25:32.856Z,101984.91
2018-02-04T23:28:00.395Z,101989.14
2018-02-04T23:30:28.318Z,101985.02
2018-02-04T23:32:55.873Z,101999.58
2018-02-04T23:35:23.429Z,101993.95
2018-02-04T23:37:51.007Z,101996.39
2018-02-04T23:40:18.560Z,102011.06
2018-02-04T23:42:46.089Z,102005.31
2018-02-04T23:45:13.637Z,102003.83
2018-02-04T23:47:41.147Z,102004.22
2018-02-04T23:50:08.731Z,102008.83
2018-02-04T23:52:36.333Z,102006.52
2018-02-04T23:55:03.882Z,102004.75
2018-02-04T23:57:31.423Z,102001.61
2018-02-04T23:59:59.019Z,102008.25
